createdAt,value
2023-02-05T00:00:27.974Z,8.02
2023-02-05T00:02:58.470Z,8.73
2023-02-05T00:05:26.506Z,7.47
2023-02-05T00:07:56.267Z,7.43
2023-02-05T00:10:23.891Z,8.65
2023-02-05T00:12:52.646Z,7.40
2023-02-05T00:15:20.702Z,7.90
2023-02-05T00:17:51.441Z,7.28
2023-02-05T00:20:20.126Z,7.65
2023-02-05T00:22:48.818Z,7.78
2023-02-05T00:25:17.543Z,9.63
2023-02-05T00:27:45.664Z,8.07
2023-02-05T00:30:13.365Z,8.13
2023-02-05T00:32:42.283Z,9.00
2023-02-05T00:35:09.670Z,7.72
2023-02-05T00:37:38.291Z,6.75
2023-02-05T00:40:06.658Z,8.23
2023-02-05T00:42:37.167Z,8.07
2023-02-05T00:45:06.884Z,7.35
2023-02-05T00:47:34.904Z,6.40
2023-02-05T00:50:03.537Z,6.60
2023-02-05T00:52:34.342Z,8.35
2023-02-05T00:55:03.166Z,8.27
2023-02-05T00:57:31.150Z,7.57
2023-02-05T00:59:59.117Z,7.43
2023-02-05T01:02:28.333Z,8.15
2023-02-05T01:04:56.782Z,7.30
2023-02-05T01:07:27.895Z,7.65
2023-02-05T01:09:56.037Z,8.13
2023-02-05T01:12:24.399Z,8.05
2023-02-05T01:14:54.032Z,7.45
2023-02-05T01:17:23.431Z,6.68
2023-02-05T01:19:51.560Z,7.25
2023-02-05T01:22:20.093Z,6.80
2023-02-05T01:24:48.624Z,7.90
2023-02-05T01:27:16.727Z,7.45
2023-02-05T01:29:46.886Z,6.70
2023-02-05T01:32:15.098Z,6.72
2023-02-05T01:34:43.809Z,6.75
2023-02-05T01:37:12.931Z,7.13
2023-02-05T01:39:41.405Z,8.27
2023-02-05T01:42:25.330Z,8.77
2023-02-05T01:45:21.953Z,8.40
2023-02-05T01:47:51.603Z,7.88
2023-02-05T01:50:46.272Z,7.80
2023-02-05T01:53:19.588Z,6.68
2023-02-05T01:56:00.916Z,7.07
2023-02-05T01:58:34.160Z,6.68
2023-02-05T02:01:03.617Z,6.25
2023-02-05T02:03:32.882Z,7.13
2023-02-05T02:06:04.637Z,6.82
2023-02-05T02:08:33.556Z,7.60
2023-02-05T02:11:05.643Z,6.30
2023-02-05T02:13:35.684Z,7.95
2023-02-05T02:16:05.479Z,8.23
2023-02-05T02:18:36.330Z,7.28
2023-02-05T02:21:25.445Z,8.25
2023-02-05T02:23:59.463Z,7.57
2023-02-05T02:27:01.838Z,7.30
2023-02-05T02:30:03.326Z,8.35
2023-02-05T02:32:41.333Z,6.72
2023-02-05T02:35:20.652Z,7.13
2023-02-05T02:37:57.330Z,6.95
2023-02-05T02:40:38.647Z,7.00
2023-02-05T02:43:38.584Z,6.75
2023-02-05T02:46:16.611Z,7.47
2023-02-05T02:48:48.109Z,8.02
2023-02-05T02:51:19.279Z,8.25
2023-02-05T02:53:52.018Z,6.82
2023-02-05T02:56:21.216Z,7.10
2023-02-05T02:59:09.671Z,6.88
2023-02-05T03:01:46.924Z,7.32
2023-02-05T03:04:22.317Z,7.13
2023-02-05T03:06:54.730Z,8.60
2023-02-05T03:09:32.261Z,7.10
2023-02-05T03:12:00.430Z,7.07
2023-02-05T03:14:31.083Z,8.07
2023-02-05T03:17:00.042Z,7.63
2023-02-05T03:19:28.655Z,6.20
2023-02-05T03:22:02.714Z,6.88
2023-02-05T03:24:32.243Z,6.85
2023-02-05T03:26:59.854Z,8.38
2023-02-05T03:29:38.815Z,6.47
2023-02-05T03:32:48.235Z,7.03
2023-02-05T03:35:30.476Z,8.02
2023-02-05T03:38:11.505Z,7.85
2023-02-05T03:40:52.856Z,7.65
2023-02-05T03:43:47.917Z,8.68
2023-02-05T03:46:21.317Z,9.98
2023-02-05T03:49:16.683Z,7.65
2023-02-05T03:51:51.802Z,10.27
2023-02-05T03:54:34.858Z,7.88
2023-02-05T03:57:15.418Z,9.73
2023-02-05T03:59:45.201Z,9.02
2023-02-05T04:02:13.157Z,9.23
2023-02-05T04:04:42.008Z,8.20
2023-02-05T04:07:10.372Z,10.30
2023-02-05T04:09:38.552Z,7.55
2023-02-05T04:12:06.353Z,8.32
2023-02-05T04:14:34.847Z,7.82
2023-02-05T04:17:04.046Z,8.00
2023-02-05T04:19:31.678Z,7.55
2023-02-05T04:21:59.433Z,6.90
2023-02-05T04:24:27.945Z,7.88
2023-02-05T04:26:56.788Z,7.85
2023-02-05T04:29:25.285Z,6.75
2023-02-05T04:34:20.004Z,8.18
2023-02-05T04:36:49.139Z,8.90
2023-02-05T04:39:16.848Z,7.13
2023-02-05T04:41:46.253Z,7.25
2023-02-05T04:44:14.641Z,7.90
2023-02-05T04:46:43.738Z,8.15
2023-02-05T04:49:11.654Z,8.27
2023-02-05T04:51:41.328Z,7.18
2023-02-05T04:54:09.354Z,7.57
2023-02-05T04:56:38.482Z,8.55
2023-02-05T04:59:05.842Z,6.70
2023-02-05T05:01:33.131Z,7.72
2023-02-05T05:04:02.718Z,8.55
2023-02-05T05:06:30.483Z,8.50
2023-02-05T05:08:58.377Z,9.23
2023-02-05T05:11:26.906Z,7.55
2023-02-05T05:13:54.861Z,8.00
2023-02-05T05:16:22.691Z,8.57
2023-02-05T05:18:53.378Z,6.93
2023-02-05T05:21:21.562Z,7.75
2023-02-05T05:23:48.812Z,6.72
2023-02-05T05:26:17.354Z,7.00
2023-02-05T05:28:47.367Z,8.48
2023-02-05T05:31:17.895Z,7.38
2023-02-05T05:33:46.663Z,7.93
2023-02-05T05:36:15.548Z,7.32
2023-02-05T05:38:42.744Z,7.15
2023-02-05T05:41:39.785Z,7.50
2023-02-05T05:44:09.776Z,7.10
2023-02-05T05:46:37.361Z,7.38
2023-02-05T05:49:07.116Z,8.60
2023-02-05T05:51:35.385Z,6.68
2023-02-05T05:54:03.720Z,6.97
2023-02-05T05:56:32.118Z,8.48
2023-02-05T05:59:00.118Z,9.00
2023-02-05T06:01:27.730Z,9.13
2023-02-05T06:03:57.588Z,9.25
2023-02-05T06:06:25.012Z,8.60
2023-02-05T06:08:52.339Z,8.82
2023-02-05T06:11:20.226Z,10.35
2023-02-05T06:13:49.367Z,8.80
2023-02-05T06:16:17.075Z,9.07
2023-02-05T06:18:45.192Z,7.57
2023-02-05T06:21:13.255Z,9.20
2023-02-05T06:23:41.180Z,10.30
2023-02-05T06:28:36.479Z,8.00
2023-02-05T06:31:04.255Z,8.20
2023-02-05T06:33:32.116Z,8.05
2023-02-05T06:36:00.462Z,7.43
2023-02-05T06:38:28.634Z,7.57
2023-02-05T06:40:57.644Z,7.20
2023-02-05T06:43:26.206Z,9.32
2023-02-05T06:45:55.618Z,8.68
2023-02-05T06:48:23.803Z,8.25
2023-02-05T06:50:52.392Z,9.38
2023-02-05T06:53:20.748Z,9.27
2023-02-05T06:55:49.955Z,8.05
2023-02-05T06:58:16.677Z,8.05
2023-02-05T07:00:45.110Z,7.82
2023-02-05T07:03:12.800Z,7.88
2023-02-05T07:05:40.153Z,9.05
2023-02-05T07:08:08.720Z,9.85
2023-02-05T07:10:36.737Z,8.85
2023-02-05T07:13:06.018Z,7.32
2023-02-05T07:15:36.309Z,7.65
2023-02-05T07:18:05.286Z,6.47
2023-02-05T07:20:34.415Z,6.72
2023-02-05T07:23:01.805Z,8.27
2023-02-05T07:25:36.200Z,7.03
2023-02-05T07:28:06.499Z,8.02
2023-02-05T07:30:35.659Z,6.70
2023-02-05T07:33:04.110Z,6.82
2023-02-05T07:35:37.140Z,7.82
2023-02-05T07:38:05.637Z,6.47
2023-02-05T07:40:34.529Z,7.63
2023-02-05T07:43:02.398Z,6.85
2023-02-05T07:45:31.298Z,7.85
2023-02-05T07:47:59.615Z,7.10
2023-02-05T07:50:28.104Z,7.25
2023-02-05T07:52:56.169Z,7.93
2023-02-05T07:55:23.522Z,8.32
2023-02-05T07:57:51.677Z,6.35
2023-02-05T08:00:19.985Z,6.30
2023-02-05T08:02:49.756Z,6.80
2023-02-05T08:05:20.864Z,6.63
2023-02-05T08:07:49.636Z,7.80
2023-02-05T08:10:18.606Z,9.65
2023-02-05T08:12:47.881Z,9.32
2023-02-05T08:15:15.094Z,8.43
2023-02-05T08:17:44.067Z,10.60
2023-02-05T08:20:13.326Z,8.70
2023-02-05T08:22:45.155Z,9.68
2023-02-05T08:25:15.846Z,9.40
2023-02-05T08:27:46.363Z,9.10
2023-02-05T08:30:17.544Z,9.85
2023-02-05T08:32:49.224Z,8.45
2023-02-05T08:35:17.902Z,8.45
2023-02-05T08:37:45.464Z,8.75
2023-02-05T08:40:13.465Z,9.40
2023-02-05T08:42:42.161Z,9.13
2023-02-05T08:45:10.394Z,9.73
2023-02-05T08:47:38.133Z,11.68
2023-02-05T08:50:07.338Z,11.10
2023-02-05T08:52:37.533Z,9.60
2023-02-05T08:55:07.867Z,12.32
2023-02-05T08:57:37.891Z,9.68
2023-02-05T09:00:07.798Z,8.23
2023-02-05T09:02:41.169Z,7.07
2023-02-05T09:05:10.403Z,7.57
2023-02-05T09:07:41.205Z,6.47
2023-02-05T09:10:11.866Z,5.57
2023-02-05T09:12:47.758Z,7.60
2023-02-05T09:15:16.115Z,6.72
2023-02-05T09:17:47.414Z,6.68
2023-02-05T09:20:14.950Z,6.70
2023-02-05T09:22:44.365Z,6.13
2023-02-05T09:25:12.122Z,6.85
2023-02-05T09:27:43.752Z,7.35
2023-02-05T09:30:13.830Z,7.53
2023-02-05T09:32:45.105Z,6.78
2023-02-05T09:35:12.684Z,7.30
2023-02-05T09:37:43.921Z,7.82
2023-02-05T09:40:24.857Z,5.80
2023-02-05T09:43:20.803Z,5.90
2023-02-05T09:46:10.948Z,5.95
2023-02-05T09:49:01.558Z,6.22
2023-02-05T09:51:37.736Z,5.85
2023-02-05T09:54:18.267Z,6.35
2023-02-05T09:56:48.579Z,5.57
2023-02-05T09:59:22.031Z,5.25
2023-02-05T10:01:59.668Z,5.50
2023-02-05T10:04:29.138Z,5.13
2023-02-05T10:07:05.807Z,4.18
2023-02-05T10:12:25.600Z,3.92
2023-02-05T10:15:33.204Z,3.45
2023-02-05T10:18:11.301Z,4.00
2023-02-05T10:20:44.768Z,3.63
2023-02-05T10:23:36.498Z,3.05
2023-02-05T10:26:10.843Z,3.33
2023-02-05T10:29:05.144Z,2.85
2023-02-05T10:32:15.752Z,3.70
2023-02-05T10:34:54.825Z,3.40
2023-02-05T10:37:41.642Z,3.80
2023-02-05T10:40:15.654Z,3.17
2023-02-05T10:43:10.584Z,2.78
2023-02-05T10:45:39.801Z,2.95
2023-02-05T10:48:22.283Z,3.38
2023-02-05T10:51:20.047Z,2.83
2023-02-05T10:53:48.596Z,3.15
2023-02-05T10:56:18.930Z,2.92
2023-02-05T10:58:54.896Z,3.88
2023-02-05T11:01:30.123Z,3.90
2023-02-05T11:04:03.090Z,3.47
2023-02-05T11:06:39.965Z,3.88
2023-02-05T11:09:25.055Z,2.95
2023-02-05T11:11:54.997Z,2.97
2023-02-05T11:14:38.450Z,2.90
2023-02-05T11:17:22.029Z,3.35
2023-02-05T11:19:58.495Z,3.28
2023-02-05T11:22:35.507Z,3.33
2023-02-05T11:25:12.667Z,3.38
2023-02-05T11:27:41.770Z,2.60
2023-02-05T11:30:50.871Z,2.35
2023-02-05T11:33:31.108Z,2.53
2023-02-05T11:36:05.462Z,2.03
2023-02-05T11:38:45.872Z,2.72
2023-02-05T11:41:28.381Z,2.45
2023-02-05T11:44:02.905Z,2.88
2023-02-05T11:46:42.466Z,1.83
2023-02-05T11:49:21.557Z,1.75
2023-02-05T11:51:52.647Z,1.70
2023-02-05T11:54:29.779Z,2.03
2023-02-05T11:57:00.601Z,2.15
2023-02-05T11:59:29.210Z,1.70
2023-02-05T12:02:30.716Z,1.73
2023-02-05T12:08:00.145Z,2.20
2023-02-05T12:10:54.803Z,1.77
2023-02-05T12:13:38.394Z,2.00
2023-02-05T12:16:18.803Z,1.88
2023-02-05T12:19:01.284Z,1.80
2023-02-05T12:21:49.990Z,2.00
2023-02-05T12:24:47.322Z,1.45
2023-02-05T12:27:26.328Z,1.40
2023-02-05T12:30:19.837Z,1.35
2023-02-05T12:33:09.000Z,2.47
2023-02-05T12:36:17.099Z,1.65
2023-02-05T12:39:25.862Z,1.55
2023-02-05T12:41:56.192Z,1.95
2023-02-05T12:44:32.239Z,2.53
2023-02-05T12:47:31.156Z,1.75
2023-02-05T12:50:12.077Z,2.25
2023-02-05T12:52:55.246Z,2.85
2023-02-05T12:55:40.862Z,2.25
2023-02-05T12:58:12.773Z,2.25
2023-02-05T13:00:48.872Z,2.03
2023-02-05T13:03:38.651Z,2.63
2023-02-05T13:06:12.937Z,1.88
2023-02-05T13:08:51.909Z,2.58
2023-02-05T13:11:38.381Z,3.08
2023-02-05T13:14:13.102Z,2.80
2023-02-05T13:19:35.098Z,1.90
2023-02-05T13:22:34.389Z,2.60
2023-02-05T13:25:43.817Z,2.70
2023-02-05T13:28:42.928Z,2.53
2023-02-05T13:31:32.931Z,3.25
2023-02-05T13:34:06.218Z,3.00
2023-02-05T13:36:58.327Z,2.42
2023-02-05T13:39:55.506Z,3.10
2023-02-05T13:42:50.232Z,3.40
2023-02-05T13:45:37.175Z,3.20
2023-02-05T13:48:43.142Z,3.70
2023-02-05T13:51:39.014Z,5.15
2023-02-05T13:54:35.933Z,5.47
2023-02-05T13:57:24.225Z,3.95
2023-02-05T13:59:53.240Z,3.55
2023-02-05T14:02:40.273Z,4.18
2023-02-05T14:05:08.258Z,3.78
2023-02-05T14:07:47.694Z,3.97
2023-02-05T14:10:27.322Z,4.10
2023-02-05T14:13:11.235Z,3.92
2023-02-05T14:15:44.893Z,3.83
2023-02-05T14:18:33.666Z,4.22
2023-02-05T14:21:00.537Z,4.18
2023-02-05T14:23:45.981Z,3.97
2023-02-05T14:26:12.642Z,4.35
2023-02-05T14:31:47.592Z,3.75
2023-02-05T14:34:31.342Z,4.10
2023-02-05T14:36:58.358Z,4.15
2023-02-05T14:39:35.552Z,3.60
2023-02-05T14:42:05.596Z,4.22
2023-02-05T14:44:37.201Z,4.32
2023-02-05T14:47:21.382Z,4.00
2023-02-05T14:49:49.779Z,3.63
2023-02-05T14:52:38.977Z,4.10
2023-02-05T14:55:20.292Z,4.18
2023-02-05T14:57:54.113Z,4.45
2023-02-05T15:00:33.914Z,3.53
2023-02-05T15:03:12.679Z,4.00
2023-02-05T15:05:45.047Z,4.53
2023-02-05T15:08:29.736Z,4.00
2023-02-05T15:11:15.959Z,4.63
2023-02-05T15:13:42.910Z,6.13
2023-02-05T15:16:13.043Z,4.25
2023-02-05T15:18:58.817Z,3.38
2023-02-05T15:21:30.307Z,3.67
2023-02-05T15:24:14.182Z,3.17
2023-02-05T15:27:01.980Z,4.22
2023-02-05T15:29:44.604Z,3.55
2023-02-05T15:32:22.838Z,5.28
2023-02-05T15:34:56.184Z,3.92
2023-02-05T15:37:32.373Z,3.50
2023-02-05T15:40:33.649Z,4.53
2023-02-05T15:43:10.027Z,3.58
2023-02-05T15:45:40.294Z,3.22
2023-02-05T15:48:13.483Z,3.03
2023-02-05T15:50:57.964Z,3.67
2023-02-05T15:53:41.789Z,3.80
2023-02-05T15:56:16.391Z,3.15
2023-02-05T15:58:49.288Z,5.10
2023-02-05T16:01:47.852Z,3.60
2023-02-05T16:04:38.334Z,4.05
2023-02-05T16:07:24.485Z,3.45
2023-02-05T16:09:54.172Z,3.95
2023-02-05T16:12:20.870Z,3.90
2023-02-05T16:14:58.494Z,5.10
2023-02-05T16:17:36.787Z,3.33
2023-02-05T16:20:28.743Z,4.22
2023-02-05T16:23:30.388Z,3.92
2023-02-05T16:26:04.413Z,3.55
2023-02-05T16:29:00.184Z,3.40
2023-02-05T16:31:28.920Z,2.72
2023-02-05T16:34:01.572Z,3.17
2023-02-05T16:36:32.127Z,2.72
2023-02-05T16:39:01.909Z,3.95
2023-02-05T16:41:38.702Z,4.28
2023-02-05T16:44:07.459Z,5.03
2023-02-05T16:46:36.213Z,3.72
2023-02-05T16:49:24.597Z,4.07
2023-02-05T16:51:50.911Z,3.85
2023-02-05T16:54:17.948Z,3.15
2023-02-05T16:56:53.186Z,5.40
2023-02-05T16:59:23.957Z,6.32
2023-02-05T17:01:53.138Z,3.83
2023-02-05T17:04:35.317Z,5.43
2023-02-05T17:07:04.473Z,3.92
2023-02-05T17:09:34.691Z,3.33
2023-02-05T17:12:31.282Z,3.42
2023-02-05T17:15:03.501Z,3.55
2023-02-05T17:17:31.996Z,3.10
2023-02-05T17:20:19.993Z,3.05
2023-02-05T17:23:07.809Z,2.60
2023-02-05T17:25:55.285Z,3.67
2023-02-05T17:28:27.648Z,3.17
2023-02-05T17:30:59.759Z,4.78
2023-02-05T17:33:28.760Z,3.92
2023-02-05T17:35:55.782Z,3.72
2023-02-05T17:38:25.746Z,4.72
2023-02-05T17:41:13.573Z,4.20
2023-02-05T17:43:40.691Z,4.55
2023-02-05T17:46:13.986Z,4.30
2023-02-05T17:48:41.679Z,3.85
2023-02-05T17:51:17.950Z,3.65
2023-02-05T17:53:44.627Z,5.35
2023-02-05T17:56:13.628Z,6.57
2023-02-05T17:58:41.779Z,6.10
2023-02-05T18:01:11.689Z,5.60
2023-02-05T18:03:39.295Z,5.60
2023-02-05T18:06:07.169Z,5.32
2023-02-05T18:08:36.098Z,4.90
2023-02-05T18:11:03.033Z,3.97
2023-02-05T18:13:29.908Z,4.18
2023-02-05T18:16:01.417Z,4.85
2023-02-05T18:18:28.491Z,6.22
2023-02-05T18:20:54.998Z,5.45
2023-02-05T18:23:28.850Z,6.47
2023-02-05T18:25:57.428Z,6.63
2023-02-05T18:28:27.741Z,5.65
2023-02-05T18:31:02.399Z,5.90
2023-02-05T18:33:30.484Z,6.53
2023-02-05T18:36:02.810Z,6.85
2023-02-05T18:38:32.888Z,6.32
2023-02-05T18:41:05.656Z,6.60
2023-02-05T18:43:32.438Z,5.30
2023-02-05T18:45:58.980Z,4.65
2023-02-05T18:48:25.848Z,5.03
2023-02-05T18:50:53.891Z,5.15
2023-02-05T18:53:23.597Z,5.30
2023-02-05T18:56:03.358Z,6.90
2023-02-05T18:58:29.966Z,4.85
2023-02-05T19:00:56.749Z,3.00
2023-02-05T19:03:23.678Z,5.20
2023-02-05T19:08:16.861Z,4.43
2023-02-05T19:10:43.340Z,5.80
2023-02-05T19:13:10.561Z,6.43
2023-02-05T19:15:37.233Z,5.95
2023-02-05T19:18:03.970Z,4.68
2023-02-05T19:20:30.544Z,3.63
2023-02-05T19:25:24.004Z,2.80
2023-02-05T19:27:52.961Z,2.78
2023-02-05T19:30:19.552Z,2.80
2023-02-05T19:32:46.759Z,3.67
2023-02-05T19:35:15.120Z,3.15
2023-02-05T19:37:41.634Z,2.88
2023-02-05T19:40:09.234Z,3.33
2023-02-05T19:42:37.468Z,3.38
2023-02-05T19:45:04.243Z,5.18
2023-02-05T19:47:32.257Z,4.32
2023-02-05T19:49:59.483Z,3.58
2023-02-05T19:52:27.767Z,4.07
2023-02-05T19:54:55.059Z,2.55
2023-02-05T19:57:21.828Z,4.45
2023-02-05T19:59:50.229Z,2.83
2023-02-05T20:02:19.248Z,3.00
2023-02-05T20:04:47.250Z,3.47
2023-02-05T20:07:14.660Z,3.40
2023-02-05T20:09:41.305Z,4.50
2023-02-05T20:12:08.989Z,3.08
2023-02-05T20:14:36.209Z,4.85
2023-02-05T20:17:03.109Z,2.38
2023-02-05T20:19:30.128Z,1.98
2023-02-05T20:21:56.674Z,2.25
2023-02-05T20:24:23.189Z,1.65
2023-02-05T20:26:50.280Z,1.92
2023-02-05T20:29:36.597Z,3.45
2023-02-05T20:32:04.632Z,3.90
2023-02-05T20:34:35.516Z,2.50
2023-02-05T20:37:05.193Z,2.05
2023-02-05T20:39:34.652Z,2.55
2023-02-05T20:42:01.973Z,1.77
2023-02-05T20:44:30.354Z,2.13
2023-02-05T20:46:57.617Z,2.25
2023-02-05T20:51:52.871Z,2.72
2023-02-05T20:54:21.177Z,3.45
2023-02-05T20:56:50.259Z,2.00
2023-02-05T20:59:17.083Z,1.90
2023-02-05T21:01:43.766Z,2.65
2023-02-05T21:04:10.500Z,2.40
2023-02-05T21:06:38.842Z,2.50
2023-02-05T21:09:06.403Z,3.58
2023-02-05T21:11:33.183Z,2.65
2023-02-05T21:16:28.070Z,2.30
2023-02-05T21:18:55.813Z,2.38
2023-02-05T21:21:25.892Z,2.55
2023-02-05T21:23:57.553Z,2.38
2023-02-05T21:26:35.328Z,2.83
2023-02-05T21:29:06.504Z,3.10
2023-02-05T21:31:39.161Z,2.80
2023-02-05T21:34:08.336Z,3.22
2023-02-05T21:36:35.378Z,2.33
2023-02-05T21:39:02.209Z,2.90
2023-02-05T21:41:29.498Z,3.38
2023-02-05T21:43:59.543Z,2.55
2023-02-05T21:46:29.489Z,3.10
2023-02-05T21:48:58.314Z,3.03
2023-02-05T21:51:30.361Z,3.05
2023-02-05T21:53:59.529Z,2.30
2023-02-05T21:56:32.203Z,2.95
2023-02-05T21:58:59.028Z,2.47
2023-02-05T22:01:31.216Z,3.33
2023-02-05T22:04:03.252Z,2.17
2023-02-05T22:06:32.635Z,2.97
2023-02-05T22:09:01.097Z,2.75
2023-02-05T22:11:28.438Z,2.55
2023-02-05T22:13:56.202Z,2.60
2023-02-05T22:16:28.309Z,2.25
2023-02-05T22:18:56.698Z,3.13
2023-02-05T22:21:29.391Z,2.50
2023-02-05T22:26:33.683Z,2.00
2023-02-05T22:29:02.090Z,2.45
2023-02-05T22:31:29.500Z,2.25
2023-02-05T22:33:57.071Z,2.17
2023-02-05T22:36:26.834Z,2.95
2023-02-05T22:38:54.539Z,2.67
2023-02-05T22:41:29.377Z,2.03
2023-02-05T22:43:58.255Z,2.30
2023-02-05T22:46:28.102Z,2.28
2023-02-05T22:48:55.317Z,1.67
2023-02-05T22:51:31.430Z,2.47
2023-02-05T22:53:59.062Z,1.95
2023-02-05T22:56:26.934Z,2.03
2023-02-05T22:58:53.869Z,2.15
2023-02-05T23:03:51.771Z,2.25
2023-02-05T23:06:21.739Z,1.52
2023-02-05T23:08:54.198Z,1.70
2023-02-05T23:11:21.866Z,2.40
2023-02-05T23:13:49.207Z,3.50
2023-02-05T23:16:19.285Z,2.65
2023-02-05T23:18:48.039Z,1.30
2023-02-05T23:21:19.263Z,3.30
2023-02-05T23:23:46.555Z,3.17
2023-02-05T23:28:44.195Z,1.15
2023-02-05T23:31:11.277Z,1.50
2023-02-05T23:33:38.603Z,1.52
2023-02-05T23:36:07.284Z,1.40
2023-02-05T23:38:35.495Z,1.60
2023-02-05T23:41:02.237Z,1.10
2023-02-05T23:45:58.278Z,1.27
2023-02-05T23:48:24.817Z,1.05
2023-02-05T23:50:53.370Z,1.00
2023-02-05T23:53:23.191Z,1.10
2023-02-05T23:55:51.552Z,1.30
2023-02-05T23:58:20.887Z,1.27
